sensor_id;sensor_type;location;lat;lon;timestamp;pressure;altitude;pressure_sealevel;temperature;humidity
40372;BME280;28564;53.346;-6.554;2023-02-03T00:01:58;101846.77;;;13.23;51.49
40372;BME280;28564;53.346;-6.554;2023-02-03T00:04:26;101857.82;;;13.28;51.38
40372;BME280;28564;53.346;-6.554;2023-02-03T00:06:53;101856.02;;;13.26;51.46
40372;BME280;28564;53.346;-6.554;2023-02-03T00:09:32;101867.88;;;13.50;51.45
40372;BME280;28564;53.346;-6.554;2023-02-03T00:11:59;101863.79;;;13.81;51.26
40372;BME280;28564;53.346;-6.554;2023-02-03T00:14:38;101870.62;;;13.47;51.00
40372;BME280;28564;53.346;-6.554;2023-02-03T00:17:05;101869.66;;;13.76;50.85
40372;BME280;28564;53.346;-6.554;2023-02-03T00:19:33;101872.54;;;13.74;50.85
40372;BME280;28564;53.346;-6.554;2023-02-03T00:22:00;101875.68;;;13.72;50.85
40372;BME280;28564;53.346;-6.554;2023-02-03T00:24:27;101881.79;;;13.70;50.90
40372;BME280;28564;53.346;-6.554;2023-02-03T00:26:55;101887.83;;;13.39;51.17
40372;BME280;28564;53.346;-6.554;2023-02-03T00:29:22;101883.88;;;13.40;51.19
40372;BME280;28564;53.346;-6.554;2023-02-03T00:31:49;101889.26;;;13.44;50.99
40372;BME280;28564;53.346;-6.554;2023-02-03T00:34:16;101894.44;;;13.45;50.93
40372;BME280;28564;53.346;-6.554;2023-02-03T00:36:44;101901.78;;;13.43;51.05
40372;BME280;28564;53.346;-6.554;2023-02-03T00:39:11;101905.87;;;13.40;51.19
40372;BME280;28564;53.346;-6.554;2023-02-03T00:41:39;101905.19;;;13.42;51.18
40372;BME280;28564;53.346;-6.554;2023-02-03T00:44:07;101902.60;;;13.42;51.29
40372;BME280;28564;53.346;-6.554;2023-02-03T00:46:34;101904.53;;;13.40;51.35
40372;BME280;28564;53.346;-6.554;2023-02-03T00:49:02;101901.05;;;13.65;51.35
40372;BME280;28564;53.346;-6.554;2023-02-03T00:51:29;101911.26;;;13.43;51.33
40372;BME280;28564;53.346;-6.554;2023-02-03T00:53:58;101924.75;;;13.43;51.39
40372;BME280;28564;53.346;-6.554;2023-02-03T00:56:25;101912.44;;;13.38;51.59
40372;BME280;28564;53.346;-6.554;2023-02-03T00:58:52;101914.54;;;13.38;51.70
40372;BME280;28564;53.346;-6.554;2023-02-03T01:01:19;101909.32;;;13.33;51.94
40372;BME280;28564;53.346;-6.554;2023-02-03T01:03:47;101915.48;;;13.28;52.17
40372;BME280;28564;53.346;-6.554;2023-02-03T01:06:16;101905.96;;;13.50;52.30
40372;BME280;28564;53.346;-6.554;2023-02-03T01:08:44;101911.41;;;13.24;52.52
40372;BME280;28564;53.346;-6.554;2023-02-03T01:11:14;101922.89;;;13.43;52.71
40372;BME280;28564;53.346;-6.554;2023-02-03T01:13:41;101915.74;;;13.18;52.97
40372;BME280;28564;53.346;-6.554;2023-02-03T01:16:10;101924.23;;;13.59;53.22
40372;BME280;28564;53.346;-6.554;2023-02-03T01:18:38;101927.47;;;13.10;53.48
40372;BME280;28564;53.346;-6.554;2023-02-03T01:21:07;101932.85;;;13.03;53.88
40372;BME280;28564;53.346;-6.554;2023-02-03T01:23:35;101937.12;;;13.15;54.35
40372;BME280;28564;53.346;-6.554;2023-02-03T01:26:04;101952.23;;;13.07;54.79
40372;BME280;28564;53.346;-6.554;2023-02-03T01:28:32;101924.87;;;13.01;55.15
40372;BME280;28564;53.346;-6.554;2023-02-03T01:31:09;101935.23;;;13.18;55.51
40372;BME280;28564;53.346;-6.554;2023-02-03T01:33:37;101926.06;;;12.87;55.82
40372;BME280;28564;53.346;-6.554;2023-02-03T01:36:04;101932.46;;;13.04;56.13
40372;BME280;28564;53.346;-6.554;2023-02-03T01:38:31;101929.41;;;12.97;56.48
40372;BME280;28564;53.346;-6.554;2023-02-03T01:40:58;101934.63;;;12.98;56.48
40372;BME280;28564;53.346;-6.554;2023-02-03T01:43:31;101929.68;;;12.93;56.69
40372;BME280;28564;53.346;-6.554;2023-02-03T01:46:01;101930.84;;;12.93;56.87
40372;BME280;28564;53.346;-6.554;2023-02-03T01:48:31;101936.24;;;12.88;57.15
40372;BME280;28564;53.346;-6.554;2023-02-03T01:51:01;101935.78;;;12.84;57.37
40372;BME280;28564;53.346;-6.554;2023-02-03T01:53:32;101934.27;;;12.77;57.55
40372;BME280;28564;53.346;-6.554;2023-02-03T01:56:01;101937.01;;;12.73;57.81
40372;BME280;28564;53.346;-6.554;2023-02-03T01:58:31;101936.25;;;12.72;57.92
40372;BME280;28564;53.346;-6.554;2023-02-03T02:01:03;101936.41;;;12.71;58.06
40372;BME280;28564;53.346;-6.554;2023-02-03T02:03:36;101931.12;;;12.67;58.11
40372;BME280;28564;53.346;-6.554;2023-02-03T02:06:09;101925.93;;;12.65;58.24
40372;BME280;28564;53.346;-6.554;2023-02-03T02:08:39;101926.41;;;12.61;58.30
40372;BME280;28564;53.346;-6.554;2023-02-03T02:11:07;101924.55;;;12.60;58.48
40372;BME280;28564;53.346;-6.554;2023-02-03T02:13:35;101926.54;;;12.58;58.51
40372;BME280;28564;53.346;-6.554;2023-02-03T02:16:09;101933.73;;;12.58;58.58
40372;BME280;28564;53.346;-6.554;2023-02-03T02:18:49;101934.35;;;12.59;58.55
40372;BME280;28564;53.346;-6.554;2023-02-03T02:21:47;101932.28;;;12.62;58.58
40372;BME280;28564;53.346;-6.554;2023-02-03T02:25:22;101936.20;;;12.65;58.37
40372;BME280;28564;53.346;-6.554;2023-02-03T02:28:12;101942.43;;;12.68;58.42
40372;BME280;28564;53.346;-6.554;2023-02-03T02:30:54;101937.16;;;12.53;58.31
40372;BME280;28564;53.346;-6.554;2023-02-03T02:33:34;101934.57;;;12.84;58.09
40372;BME280;28564;53.346;-6.554;2023-02-03T02:36:11;101939.65;;;12.87;57.96
40372;BME280;28564;53.346;-6.554;2023-02-03T02:38:52;101931.03;;;12.85;58.06
40372;BME280;28564;53.346;-6.554;2023-02-03T02:41:27;101934.77;;;12.80;58.22
40372;BME280;28564;53.346;-6.554;2023-02-03T02:44:00;101935.70;;;12.79;58.30
40372;BME280;28564;53.346;-6.554;2023-02-03T02:46:32;101931.21;;;12.78;58.35
40372;BME280;28564;53.346;-6.554;2023-02-03T02:49:11;101930.73;;;12.77;58.44
40372;BME280;28564;53.346;-6.554;2023-02-03T02:51:41;101938.90;;;12.78;58.47
40372;BME280;28564;53.346;-6.554;2023-02-03T02:54:14;101930.23;;;12.56;58.54
40372;BME280;28564;53.346;-6.554;2023-02-03T02:56:44;101925.85;;;12.77;58.50
40372;BME280;28564;53.346;-6.554;2023-02-03T02:59:14;101922.73;;;12.78;58.43
40372;BME280;28564;53.346;-6.554;2023-02-03T03:01:41;101922.58;;;12.73;58.48
40372;BME280;28564;53.346;-6.554;2023-02-03T03:04:10;101916.86;;;12.68;58.74
40372;BME280;28564;53.346;-6.554;2023-02-03T03:06:40;101919.55;;;12.67;58.86
40372;BME280;28564;53.346;-6.554;2023-02-03T03:09:12;101918.50;;;12.95;58.77
40372;BME280;28564;53.346;-6.554;2023-02-03T03:11:46;101923.21;;;12.70;58.77
40372;BME280;28564;53.346;-6.554;2023-02-03T03:14:23;101923.69;;;12.75;58.79
40372;BME280;28564;53.346;-6.554;2023-02-03T03:16:55;101923.81;;;12.77;58.74
40372;BME280;28564;53.346;-6.554;2023-02-03T03:19:28;101921.49;;;12.76;58.70
40372;BME280;28564;53.346;-6.554;2023-02-03T03:22:00;101924.43;;;12.80;58.57
40372;BME280;28564;53.346;-6.554;2023-02-03T03:24:30;101925.58;;;12.79;58.63
40372;BME280;28564;53.346;-6.554;2023-02-03T03:27:03;101925.96;;;12.81;58.58
40372;BME280;28564;53.346;-6.554;2023-02-03T03:29:37;101924.57;;;12.83;58.56
40372;BME280;28564;53.346;-6.554;2023-02-03T03:32:07;101920.50;;;12.86;58.56
40372;BME280;28564;53.346;-6.554;2023-02-03T03:34:35;101927.38;;;12.91;58.40
40372;BME280;28564;53.346;-6.554;2023-02-03T03:37:09;101927.28;;;12.67;58.42
40372;BME280;28564;53.346;-6.554;2023-02-03T03:39:43;101933.81;;;12.62;58.74
40372;BME280;28564;53.346;-6.554;2023-02-03T03:42:19;101932.12;;;12.69;58.47
40372;BME280;28564;53.346;-6.554;2023-02-03T03:44:53;101930.32;;;12.71;58.43
40372;BME280;28564;53.346;-6.554;2023-02-03T03:47:27;101930.20;;;12.99;58.27
40372;BME280;28564;53.346;-6.554;2023-02-03T03:49:58;101922.82;;;13.01;58.16
40372;BME280;28564;53.346;-6.554;2023-02-03T03:52:31;101921.33;;;13.00;58.16
40372;BME280;28564;53.346;-6.554;2023-02-03T03:55:00;101925.80;;;13.03;58.09
40372;BME280;28564;53.346;-6.554;2023-02-03T03:57:32;101915.75;;;13.03;58.04
40372;BME280;28564;53.346;-6.554;2023-02-03T04:00:05;101917.99;;;13.06;57.82
40372;BME280;28564;53.346;-6.554;2023-02-03T04:02:35;101911.00;;;13.08;57.80
40372;BME280;28564;53.346;-6.554;2023-02-03T04:05:06;101912.84;;;13.08;57.76
40372;BME280;28564;53.346;-6.554;2023-02-03T04:07:44;101912.15;;;13.08;57.83
40372;BME280;28564;53.346;-6.554;2023-02-03T04:10:21;101912.75;;;13.11;57.63
40372;BME280;28564;53.346;-6.554;2023-02-03T04:12:51;101920.99;;;13.10;57.74
40372;BME280;28564;53.346;-6.554;2023-02-03T04:15:18;101927.29;;;13.11;57.55
40372;BME280;28564;53.346;-6.554;2023-02-03T04:17:46;101929.36;;;12.89;57.55
40372;BME280;28564;53.346;-6.554;2023-02-03T04:20:14;101937.82;;;13.11;57.60
40372;BME280;28564;53.346;-6.554;2023-02-03T04:22:46;101932.32;;;13.12;57.54
40372;BME280;28564;53.346;-6.554;2023-02-03T04:25:14;101935.67;;;13.11;57.44
40372;BME280;28564;53.346;-6.554;2023-02-03T04:27:42;101941.13;;;13.09;57.51
40372;BME280;28564;53.346;-6.554;2023-02-03T04:30:10;101937.01;;;12.86;57.58
40372;BME280;28564;53.346;-6.554;2023-02-03T04:32:38;101931.96;;;12.87;57.55
40372;BME280;28564;53.346;-6.554;2023-02-03T04:35:06;101934.24;;;13.14;57.42
40372;BME280;28564;53.346;-6.554;2023-02-03T04:37:34;101936.49;;;13.16;57.39
40372;BME280;28564;53.346;-6.554;2023-02-03T04:40:02;101941.62;;;13.18;57.24
40372;BME280;28564;53.346;-6.554;2023-02-03T04:42:30;101944.05;;;12.96;57.18
40372;BME280;28564;53.346;-6.554;2023-02-03T04:44:58;101944.51;;;12.98;57.07
40372;BME280;28564;53.346;-6.554;2023-02-03T04:47:26;101946.30;;;12.98;57.03
40372;BME280;28564;53.346;-6.554;2023-02-03T04:49:53;101939.24;;;13.21;56.91
40372;BME280;28564;53.346;-6.554;2023-02-03T04:52:20;101938.91;;;13.20;56.92
40372;BME280;28564;53.346;-6.554;2023-02-03T04:54:48;101942.77;;;12.96;56.83
40372;BME280;28564;53.346;-6.554;2023-02-03T04:57:15;101940.70;;;12.95;56.83
40372;BME280;28564;53.346;-6.554;2023-02-03T04:59:42;101949.10;;;13.18;56.90
40372;BME280;28564;53.346;-6.554;2023-02-03T05:02:09;101943.97;;;12.99;56.72
40372;BME280;28564;53.346;-6.554;2023-02-03T05:04:37;101945.81;;;13.19;56.69
40372;BME280;28564;53.346;-6.554;2023-02-03T05:07:04;101946.90;;;13.19;56.72
40372;BME280;28564;53.346;-6.554;2023-02-03T05:09:32;101952.12;;;13.18;56.71
40372;BME280;28564;53.346;-6.554;2023-02-03T05:12:00;101959.00;;;12.97;56.57
40372;BME280;28564;53.346;-6.554;2023-02-03T05:14:27;101960.54;;;12.95;56.65
40372;BME280;28564;53.346;-6.554;2023-02-03T05:16:54;101957.59;;;13.18;56.75
40372;BME280;28564;53.346;-6.554;2023-02-03T05:19:21;101960.44;;;13.18;56.68
40372;BME280;28564;53.346;-6.554;2023-02-03T05:21:48;101960.89;;;13.19;56.64
40372;BME280;28564;53.346;-6.554;2023-02-03T05:24:15;101961.56;;;13.22;56.46
40372;BME280;28564;53.346;-6.554;2023-02-03T05:26:43;101965.43;;;13.20;56.53
40372;BME280;28564;53.346;-6.554;2023-02-03T05:29:10;101967.65;;;13.19;56.56
40372;BME280;28564;53.346;-6.554;2023-02-03T05:31:37;101973.32;;;12.93;56.75
40372;BME280;28564;53.346;-6.554;2023-02-03T05:34:04;101977.91;;;12.93;56.71
40372;BME280;28564;53.346;-6.554;2023-02-03T05:36:31;101979.78;;;12.93;56.57
40372;BME280;28564;53.346;-6.554;2023-02-03T05:38:58;101978.09;;;12.93;56.49
40372;BME280;28564;53.346;-6.554;2023-02-03T05:41:26;101979.22;;;13.12;56.39
40372;BME280;28564;53.346;-6.554;2023-02-03T05:43:53;101982.07;;;12.86;56.39
40372;BME280;28564;53.346;-6.554;2023-02-03T05:46:20;102000.33;;;13.07;56.39
40372;BME280;28564;53.346;-6.554;2023-02-03T05:48:48;101984.95;;;12.81;56.60
40372;BME280;28564;53.346;-6.554;2023-02-03T05:51:16;101988.51;;;13.05;56.40
40372;BME280;28564;53.346;-6.554;2023-02-03T05:53:44;101983.06;;;13.12;56.17
40372;BME280;28564;53.346;-6.554;2023-02-03T05:56:11;101991.43;;;13.17;55.94
40372;BME280;28564;53.346;-6.554;2023-02-03T05:58:38;102003.13;;;13.14;55.96
40372;BME280;28564;53.346;-6.554;2023-02-03T06:01:05;101994.48;;;12.88;55.99
40372;BME280;28564;53.346;-6.554;2023-02-03T06:03:33;101996.59;;;13.11;55.87
40372;BME280;28564;53.346;-6.554;2023-02-03T06:06:01;101994.75;;;13.09;55.71
40372;BME280;28564;53.346;-6.554;2023-02-03T06:08:29;101998.07;;;13.09;55.66
40372;BME280;28564;53.346;-6.554;2023-02-03T06:10:58;101990.75;;;13.11;55.57
40372;BME280;28564;53.346;-6.554;2023-02-03T06:13:26;101996.50;;;13.14;55.63
40372;BME280;28564;53.346;-6.554;2023-02-03T06:15:55;102005.92;;;12.97;55.44
40372;BME280;28564;53.346;-6.554;2023-02-03T06:18:23;102009.41;;;12.80;55.31
40372;BME280;28564;53.346;-6.554;2023-02-03T06:20:50;102018.77;;;13.27;55.19
40372;BME280;28564;53.346;-6.554;2023-02-03T06:23:17;102031.11;;;13.07;55.02
40372;BME280;28564;53.346;-6.554;2023-02-03T06:25:46;102035.01;;;12.84;55.01
40372;BME280;28564;53.346;-6.554;2023-02-03T06:28:14;102029.75;;;13.10;54.91
40372;BME280;28564;53.346;-6.554;2023-02-03T06:30:41;102034.72;;;13.08;55.10
40372;BME280;28564;53.346;-6.554;2023-02-03T06:33:09;102037.09;;;13.13;54.68
40372;BME280;28564;53.346;-6.554;2023-02-03T06:35:37;102038.10;;;13.33;54.67
40372;BME280;28564;53.346;-6.554;2023-02-03T06:38:04;102029.91;;;13.07;54.66
40372;BME280;28564;53.346;-6.554;2023-02-03T06:40:32;102032.08;;;13.03;54.81
40372;BME280;28564;53.346;-6.554;2023-02-03T06:42:59;102028.72;;;13.02;54.65
40372;BME280;28564;53.346;-6.554;2023-02-03T06:45:26;102029.27;;;12.99;54.69
40372;BME280;28564;53.346;-6.554;2023-02-03T06:47:54;102034.62;;;12.96;54.84
40372;BME280;28564;53.346;-6.554;2023-02-03T06:50:26;102037.02;;;12.93;54.91
40372;BME280;28564;53.346;-6.554;2023-02-03T06:52:55;102045.98;;;12.69;55.01
40372;BME280;28564;53.346;-6.554;2023-02-03T06:55:22;102049.95;;;12.87;55.08
40372;BME280;28564;53.346;-6.554;2023-02-03T06:57:50;102058.42;;;13.07;55.20
40372;BME280;28564;53.346;-6.554;2023-02-03T07:00:19;102060.61;;;13.03;55.53
40372;BME280;28564;53.346;-6.554;2023-02-03T07:02:52;102060.82;;;13.00;55.64
40372;BME280;28564;53.346;-6.554;2023-02-03T07:05:21;102061.81;;;13.01;55.89
40372;BME280;28564;53.346;-6.554;2023-02-03T07:07:48;102065.39;;;12.82;56.00
40372;BME280;28564;53.346;-6.554;2023-02-03T07:10:21;102067.95;;;13.02;56.06
40372;BME280;28564;53.346;-6.554;2023-02-03T07:12:49;102072.54;;;13.03;56.01
40372;BME280;28564;53.346;-6.554;2023-02-03T07:15:17;102076.42;;;13.10;55.79
40372;BME280;28564;53.346;-6.554;2023-02-03T07:17:46;102079.24;;;13.11;55.76
40372;BME280;28564;53.346;-6.554;2023-02-03T07:20:16;102084.88;;;13.12;55.83
40372;BME280;28564;53.346;-6.554;2023-02-03T07:22:43;102087.88;;;13.10;55.78
40372;BME280;28564;53.346;-6.554;2023-02-03T07:25:15;102092.89;;;13.13;55.68
40372;BME280;28564;53.346;-6.554;2023-02-03T07:27:43;102098.12;;;12.66;55.70
40372;BME280;28564;53.346;-6.554;2023-02-03T07:30:11;102105.51;;;13.12;55.70
40372;BME280;28564;53.346;-6.554;2023-02-03T07:32:39;102109.64;;;12.87;55.75
40372;BME280;28564;53.346;-6.554;2023-02-03T07:35:07;102116.58;;;13.07;55.88
40372;BME280;28564;53.346;-6.554;2023-02-03T07:37:34;102122.61;;;12.84;55.88
40372;BME280;28564;53.346;-6.554;2023-02-03T07:40:02;102116.32;;;13.02;55.97
40372;BME280;28564;53.346;-6.554;2023-02-03T07:42:30;102114.37;;;12.93;56.20
40372;BME280;28564;53.346;-6.554;2023-02-03T07:44:57;102114.06;;;12.88;56.42
40372;BME280;28564;53.346;-6.554;2023-02-03T07:47:25;102115.24;;;12.85;56.39
40372;BME280;28564;53.346;-6.554;2023-02-03T07:49:53;102117.04;;;12.77;56.48
40372;BME280;28564;53.346;-6.554;2023-02-03T07:52:30;102118.27;;;12.76;56.49
40372;BME280;28564;53.346;-6.554;2023-02-03T07:54:58;102118.65;;;12.72;56.59
40372;BME280;28564;53.346;-6.554;2023-02-03T07:57:25;102119.82;;;12.65;56.78
40372;BME280;28564;53.346;-6.554;2023-02-03T07:59:53;102123.76;;;12.58;57.11
40372;BME280;28564;53.346;-6.554;2023-02-03T08:02:20;102121.89;;;12.60;57.06
40372;BME280;28564;53.346;-6.554;2023-02-03T08:04:47;102124.80;;;12.57;57.17
40372;BME280;28564;53.346;-6.554;2023-02-03T08:07:14;102127.38;;;12.56;57.35
40372;BME280;28564;53.346;-6.554;2023-02-03T08:09:43;102132.91;;;12.54;57.46
40372;BME280;28564;53.346;-6.554;2023-02-03T08:12:11;102144.59;;;12.49;57.58
40372;BME280;28564;53.346;-6.554;2023-02-03T08:14:38;102152.84;;;12.46;57.73
40372;BME280;28564;53.346;-6.554;2023-02-03T08:17:06;102158.48;;;12.50;57.80
40372;BME280;28564;53.346;-6.554;2023-02-03T08:19:38;102165.73;;;12.56;57.60
40372;BME280;28564;53.346;-6.554;2023-02-03T08:22:05;102165.18;;;12.56;57.63
40372;BME280;28564;53.346;-6.554;2023-02-03T08:24:32;102165.32;;;12.57;57.31
40372;BME280;28564;53.346;-6.554;2023-02-03T08:27:00;102169.04;;;12.58;57.23
40372;BME280;28564;53.346;-6.554;2023-02-03T08:29:28;102177.15;;;12.59;57.03
40372;BME280;28564;53.346;-6.554;2023-02-03T08:31:55;102180.49;;;12.58;57.09
40372;BME280;28564;53.346;-6.554;2023-02-03T08:34:23;102185.59;;;12.61;56.48
40372;BME280;28564;53.346;-6.554;2023-02-03T08:36:50;102186.51;;;12.61;56.25
40372;BME280;28564;53.346;-6.554;2023-02-03T08:39:18;102187.08;;;12.61;56.27
40372;BME280;28564;53.346;-6.554;2023-02-03T08:41:45;102190.62;;;12.67;55.86
40372;BME280;28564;53.346;-6.554;2023-02-03T08:44:13;102190.00;;;12.73;55.52
40372;BME280;28564;53.346;-6.554;2023-02-03T08:46:40;102189.77;;;12.76;55.39
40372;BME280;28564;53.346;-6.554;2023-02-03T08:49:07;102192.75;;;12.82;55.07
40372;BME280;28564;53.346;-6.554;2023-02-03T08:51:35;102189.06;;;12.80;54.67
40372;BME280;28564;53.346;-6.554;2023-02-03T08:54:02;102193.29;;;12.72;54.77
40372;BME280;28564;53.346;-6.554;2023-02-03T08:56:30;102197.78;;;12.50;54.44
40372;BME280;28564;53.346;-6.554;2023-02-03T08:58:59;102204.00;;;12.65;54.78
40372;BME280;28564;53.346;-6.554;2023-02-03T09:01:28;102211.80;;;12.70;54.89
40372;BME280;28564;53.346;-6.554;2023-02-03T09:03:55;102212.00;;;12.80;54.43
40372;BME280;28564;53.346;-6.554;2023-02-03T09:06:23;102215.90;;;12.84;54.29
40372;BME280;28564;53.346;-6.554;2023-02-03T09:08:51;102215.54;;;12.90;53.97
40372;BME280;28564;53.346;-6.554;2023-02-03T09:11:18;102216.84;;;12.98;53.79
40372;BME280;28564;53.346;-6.554;2023-02-03T09:13:45;102217.39;;;13.03;53.68
40372;BME280;28564;53.346;-6.554;2023-02-03T09:16:14;102215.83;;;12.85;53.42
40372;BME280;28564;53.346;-6.554;2023-02-03T09:18:42;102215.46;;;13.09;53.65
40372;BME280;28564;53.346;-6.554;2023-02-03T09:21:11;102207.10;;;13.18;53.17
40372;BME280;28564;53.346;-6.554;2023-02-03T09:23:39;102211.29;;;13.22;52.89
40372;BME280;28564;53.346;-6.554;2023-02-03T09:26:08;102218.64;;;13.25;52.90
40372;BME280;28564;53.346;-6.554;2023-02-03T09:28:36;102221.78;;;13.25;52.75
40372;BME280;28564;53.346;-6.554;2023-02-03T09:31:05;102226.79;;;13.04;52.52
40372;BME280;28564;53.346;-6.554;2023-02-03T09:33:33;102234.46;;;13.27;52.68
40372;BME280;28564;53.346;-6.554;2023-02-03T09:36:03;102242.33;;;13.11;52.42
40372;BME280;28564;53.346;-6.554;2023-02-03T09:38:31;102241.46;;;13.35;52.30
40372;BME280;28564;53.346;-6.554;2023-02-03T09:41:00;102245.06;;;13.37;52.26
40372;BME280;28564;53.346;-6.554;2023-02-03T09:43:35;102241.53;;;13.38;52.11
40372;BME280;28564;53.346;-6.554;2023-02-03T09:46:06;102242.72;;;13.44;52.10
40372;BME280;28564;53.346;-6.554;2023-02-03T09:48:40;102241.79;;;13.28;52.02
40372;BME280;28564;53.346;-6.554;2023-02-03T09:51:18;102243.71;;;13.16;51.96
40372;BME280;28564;53.346;-6.554;2023-02-03T09:53:50;102241.08;;;13.50;51.38
40372;BME280;28564;53.346;-6.554;2023-02-03T09:56:26;102244.25;;;13.35;51.33
40372;BME280;28564;53.346;-6.554;2023-02-03T09:58:55;102247.65;;;13.43;51.08
40372;BME280;28564;53.346;-6.554;2023-02-03T10:03:54;102251.01;;;13.55;49.98
40372;BME280;28564;53.346;-6.554;2023-02-03T10:06:31;102257.18;;;13.69;49.80
40372;BME280;28564;53.346;-6.554;2023-02-03T10:09:13;102262.95;;;13.60;49.79
40372;BME280;28564;53.346;-6.554;2023-02-03T10:12:03;102256.09;;;13.80;49.71
40372;BME280;28564;53.346;-6.554;2023-02-03T10:14:45;102254.82;;;13.68;49.75
40372;BME280;28564;53.346;-6.554;2023-02-03T10:17:25;102258.94;;;13.55;50.09
40372;BME280;28564;53.346;-6.554;2023-02-03T10:19:58;102259.14;;;13.47;50.21
40372;BME280;28564;53.346;-6.554;2023-02-03T10:22:29;102252.93;;;13.36;50.40
40372;BME280;28564;53.346;-6.554;2023-02-03T10:25:02;102254.74;;;13.32;50.40
40372;BME280;28564;53.346;-6.554;2023-02-03T10:27:33;102249.61;;;13.52;50.32
40372;BME280;28564;53.346;-6.554;2023-02-03T10:30:04;102251.79;;;13.49;50.32
40372;BME280;28564;53.346;-6.554;2023-02-03T10:32:33;102250.32;;;13.69;50.64
40372;BME280;28564;53.346;-6.554;2023-02-03T10:35:00;102248.33;;;13.52;50.26
40372;BME280;28564;53.346;-6.554;2023-02-03T10:37:30;102247.29;;;13.30;50.21
40372;BME280;28564;53.346;-6.554;2023-02-03T10:40:01;102251.80;;;13.53;50.18
40372;BME280;28564;53.346;-6.554;2023-02-03T10:42:29;102254.45;;;13.52;50.25
40372;BME280;28564;53.346;-6.554;2023-02-03T10:44:57;102259.03;;;13.29;50.67
40372;BME280;28564;53.346;-6.554;2023-02-03T10:47:31;102260.96;;;13.62;50.58
40372;BME280;28564;53.346;-6.554;2023-02-03T10:50:03;102265.66;;;13.48;50.40
40372;BME280;28564;53.346;-6.554;2023-02-03T10:52:33;102268.81;;;13.71;50.65
40372;BME280;28564;53.346;-6.554;2023-02-03T10:55:05;102269.78;;;14.10;50.08
40372;BME280;28564;53.346;-6.554;2023-02-03T10:57:35;102269.22;;;13.74;49.99
40372;BME280;28564;53.346;-6.554;2023-02-03T11:00:18;102274.57;;;13.77;50.15
40372;BME280;28564;53.346;-6.554;2023-02-03T11:02:54;102286.70;;;13.61;50.04
40372;BME280;28564;53.346;-6.554;2023-02-03T11:05:23;102290.96;;;13.97;49.49
40372;BME280;28564;53.346;-6.554;2023-02-03T11:07:51;102290.42;;;14.05;49.28
40372;BME280;28564;53.346;-6.554;2023-02-03T11:10:29;102289.42;;;14.09;48.92
40372;BME280;28564;53.346;-6.554;2023-02-03T11:13:16;102294.62;;;13.67;48.85
40372;BME280;28564;53.346;-6.554;2023-02-03T11:15:51;102290.25;;;14.29;48.78
40372;BME280;28564;53.346;-6.554;2023-02-03T11:18:52;102294.55;;;14.43;48.62
40372;BME280;28564;53.346;-6.554;2023-02-03T11:21:22;102291.36;;;14.30;48.44
40372;BME280;28564;53.346;-6.554;2023-02-03T11:24:00;102289.70;;;14.15;47.97
40372;BME280;28564;53.346;-6.554;2023-02-03T11:26:33;102290.30;;;14.42;47.87
40372;BME280;28564;53.346;-6.554;2023-02-03T11:29:03;102293.93;;;14.23;47.66
40372;BME280;28564;53.346;-6.554;2023-02-03T11:31:33;102289.94;;;14.72;47.87
40372;BME280;28564;53.346;-6.554;2023-02-03T11:34:03;102293.42;;;14.85;47.56
40372;BME280;28564;53.346;-6.554;2023-02-03T11:36:32;102298.16;;;14.43;47.27
40372;BME280;28564;53.346;-6.554;2023-02-03T11:39:16;102300.76;;;14.37;47.05
40372;BME280;28564;53.346;-6.554;2023-02-03T11:41:44;102300.02;;;14.34;47.33
40372;BME280;28564;53.346;-6.554;2023-02-03T11:44:17;102303.47;;;14.39;47.41
40372;BME280;28564;53.346;-6.554;2023-02-03T11:46:46;102302.20;;;14.42;47.53
40372;BME280;28564;53.346;-6.554;2023-02-03T11:49:37;102299.81;;;14.39;47.78
40372;BME280;28564;53.346;-6.554;2023-02-03T11:52:23;102301.66;;;14.59;47.76
40372;BME280;28564;53.346;-6.554;2023-02-03T11:55:01;102302.43;;;14.32;48.30
40372;BME280;28564;53.346;-6.554;2023-02-03T11:57:40;102315.85;;;14.44;48.16
40372;BME280;28564;53.346;-6.554;2023-02-03T12:00:21;102317.67;;;14.50;47.88
40372;BME280;28564;53.346;-6.554;2023-02-03T12:03:07;102311.67;;;14.69;48.60
40372;BME280;28564;53.346;-6.554;2023-02-03T12:06:17;102310.12;;;15.11;48.17
40372;BME280;28564;53.346;-6.554;2023-02-03T12:08:58;102310.41;;;15.19;47.23
40372;BME280;28564;53.346;-6.554;2023-02-03T12:11:37;102305.06;;;15.15;45.99
40372;BME280;28564;53.346;-6.554;2023-02-03T12:14:20;102305.66;;;15.42;45.79
40372;BME280;28564;53.346;-6.554;2023-02-03T12:17:07;102306.52;;;15.52;45.13
40372;BME280;28564;53.346;-6.554;2023-02-03T12:19:50;102307.44;;;15.50;45.03
40372;BME280;28564;53.346;-6.554;2023-02-03T12:22:25;102308.40;;;15.45;44.70
40372;BME280;28564;53.346;-6.554;2023-02-03T12:24:59;102308.53;;;15.38;45.18
40372;BME280;28564;53.346;-6.554;2023-02-03T12:27:40;102312.22;;;15.60;45.19
40372;BME280;28564;53.346;-6.554;2023-02-03T12:30:16;102303.72;;;15.23;45.06
40372;BME280;28564;53.346;-6.554;2023-02-03T12:32:50;102304.09;;;15.51;44.96
40372;BME280;28564;53.346;-6.554;2023-02-03T12:35:23;102303.53;;;15.10;45.04
40372;BME280;28564;53.346;-6.554;2023-02-03T12:37:55;102310.54;;;15.53;44.56
40372;BME280;28564;53.346;-6.554;2023-02-03T12:40:32;102310.37;;;15.37;44.67
40372;BME280;28564;53.346;-6.554;2023-02-03T12:43:15;102310.73;;;15.63;44.63
40372;BME280;28564;53.346;-6.554;2023-02-03T12:45:50;102303.32;;;15.46;44.65
40372;BME280;28564;53.346;-6.554;2023-02-03T12:48:21;102304.80;;;15.62;44.66
40372;BME280;28564;53.346;-6.554;2023-02-03T12:50:54;102302.76;;;15.73;43.99
40372;BME280;28564;53.346;-6.554;2023-02-03T12:53:26;102301.18;;;15.71;43.69
40372;BME280;28564;53.346;-6.554;2023-02-03T12:55:57;102305.66;;;15.76;44.21
40372;BME280;28564;53.346;-6.554;2023-02-03T12:58:28;102308.46;;;16.04;43.29
40372;BME280;28564;53.346;-6.554;2023-02-03T13:01:00;102316.71;;;15.81;43.69
40372;BME280;28564;53.346;-6.554;2023-02-03T13:03:34;102324.81;;;16.01;42.98